Kakushu Maru — JG5688 — position and weather

sailwx.info

Track history (hours):
 
Tides and Currents Weather Stations Pressure Air Temp Water Temp Dewpoint Dewpoint Depression Visibility Wind Speed Wind Dir Waves Ship Positions

Kakushu Maru

Last reported at 2014-Jul-23 19:15 UTC. Time now 2014-Jul-24 15:18 UTC.
Position N 34°02' E 132°46'.

Length 105 m; draft 4.7 m.

Type: Tanker. MMSI: 431101016.

Date/timePositionNaut miles runAvg speedWind from/ knotsBaromVisibWave heightAir tempDewpointWater temp
2014-Jul-23 19:15N 34°02' E 132°46'2513.3
2014-Jul-23 17:20N 33°45' E 132°23'10311.7
2014-Jul-23 08:33N 33°49' E 130°19'1010.5
2014-Jul-23 07:33N 33°39' E 130°20'4 3.6
2014-Jul-23 06:34N 33°36' E 130°23'0 0.0
2014-Jul-23 05:33N 33°36' E 130°23'0 0.0
2014-Jul-23 04:27N 33°36' E 130°23'0 0.0
2014-Jul-23 03:33N 33°36' E 130°23'0 0.0
2014-Jul-23 02:33N 33°36' E 130°23'0 0.0
2014-Jul-23 01:33N 33°36' E 130°23'3 3.1
2014-Jul-23 00:30N 33°38' E 130°20'0 0.0
2014-Jul-22 23:33N 33°38' E 130°20'0 0.1
2014-Jul-22 22:33N 33°38' E 130°20'8 8.5
2014-Jul-22 21:33N 33°46' E 130°17'  
2014-Jul-14 07:33N 35°57' E 140°43'0 0.0
2014-Jul-13 21:29N 35°58' E 140°42'  
Track history (hours):
 
Tides and Currents Weather Stations Pressure Air Temp Water Temp Dewpoint Dewpoint Depression Visibility Wind Speed Wind Dir Waves Ship Positions

Kakushu Maru

Last reported at 2014-Jul-23 19:15 UTC. Time now 2014-Jul-24 15:18 UTC.
Position N 34°02' E 132°46'.

Length 105 m; draft 4.7 m.

Type: Tanker. MMSI: 431101016.

Date/timePositionNaut miles runAvg speedWind from/ knotsBaromVisibWave heightAir tempDewpointWater temp
2014-Jul-23 19:15N 34°02' E 132°46'2513.3
2014-Jul-23 17:20N 33°45' E 132°23'10311.7
2014-Jul-23 08:33N 33°49' E 130°19'1010.5
2014-Jul-23 07:33N 33°39' E 130°20'4 3.6
2014-Jul-23 06:34N 33°36' E 130°23'0 0.0
2014-Jul-23 05:33N 33°36' E 130°23'0 0.0
2014-Jul-23 04:27N 33°36' E 130°23'0 0.0
2014-Jul-23 03:33N 33°36' E 130°23'0 0.0
2014-Jul-23 02:33N 33°36' E 130°23'0 0.0
2014-Jul-23 01:33N 33°36' E 130°23'3 3.1
2014-Jul-23 00:30N 33°38' E 130°20'0 0.0
2014-Jul-22 23:33N 33°38' E 130°20'0 0.1
2014-Jul-22 22:33N 33°38' E 130°20'8 8.5
2014-Jul-22 21:33N 33°46' E 130°17'  
2014-Jul-14 07:33N 35°57' E 140°43'0 0.0
2014-Jul-13 21:29N 35°58' E 140°42'  

Dump ship's entire track history